Time,TemperatureF,DewpointF,PressureIn,WindDirection,WindDirectionDegrees,WindSpeedMPH,WindSpeedGustMPH,Humidity,HourlyPrecipIn,Conditions,Clouds,dailyrainin,SolarRadiationWatts/m^2,SoftwareType,DateUTC
2013-06-13 00:00:00,47.9,-99.9,20.00,WSW,249,2.0,2.0,255,0.00,,,0.00,0,Wunderground v.1.15,2013-06-13 07:00:00,
2013-06-13 00:10:00,47.9,-99.9,20.00,WSW,249,0.0,0.0,255,0.00,,,0.00,0,Wunderground v.1.15,2013-06-13 07:10:00,
2013-06-13 00:15:00,47.7,-99.9,20.00,WSW,249,0.0,0.0,255,0.00,,,0.00,0,Wunderground v.1.15,2013-06-13 07:15:00,
2013-06-13 00:25:00,47.3,-99.9,20.00,SW,223,3.0,3.0,255,0.00,,,0.00,0,Wunderground v.1.15,2013-06-13 07:25:00,
2013-06-13 00:35:00,47.1,-99.9,20.00,SE,133,6.0,6.0,255,0.00,,,0.00,0,Wunderground v.1.15,2013-06-13 07:35:00,
2013-06-13 00:45:00,46.9,-99.9,20.00,SE,134,1.0,1.0,255,0.00,,,0.00,0,Wunderground v.1.15,2013-06-13 07:45:00,
2013-06-13 00:55:00,46.9,-99.9,20.00,SE,134,3.0,3.0,255,0.00,,,0.00,0,Wunderground v.1.15,2013-06-13 07:55:00,
2013-06-13 01:00:00,46.8,-99.9,20.00,SE,133,2.0,2.0,255,0.00,,,0.00,0,Wunderground v.1.15,2013-06-13 08:00:00,
2013-06-13 01:10:00,46.8,-99.9,20.00,SE,133,0.0,0.0,255,0.00,,,0.00,0,Wunderground v.1.15,2013-06-13 08:10:00,
2013-06-13 01:20:00,46.8,-99.9,20.00,SE,133,2.0,2.0,255,0.00,,,0.00,0,Wunderground v.1.15,2013-06-13 08:20:00,
2013-06-13 01:25:00,46.8,-99.9,20.00,SE,133,1.0,2.0,255,0.00,,,0.00,0,Wunderground v.1.15,2013-06-13 08:25:00,
2013-06-13 01:35:00,46.8,-99.9,20.00,SE,133,1.0,1.0,255,0.00,,,0.00,0,Wunderground v.1.15,2013-06-13 08:35:00,
2013-06-13 01:45:00,46.7,-99.9,20.00,SE,133,2.0,2.0,255,0.00,,,0.00,0,Wunderground v.1.15,2013-06-13 08:45:00,
2013-06-13 01:55:00,46.5,-99.9,20.00,SE,133,3.0,3.0,255,0.00,,,0.00,0,Wunderground v.1.15,2013-06-13 08:55:00,
2013-06-13 02:00:00,46.6,-99.9,20.00,SE,133,3.0,3.0,255,0.00,,,0.00,0,Wunderground v.1.15,2013-06-13 09:00:00,
2013-06-13 02:10:00,46.8,-99.9,20.00,SE,133,4.0,4.0,255,0.00,,,0.00,0,Wunderground v.1.15,2013-06-13 09:10:00,
2013-06-13 02:20:00,46.8,-99.9,20.00,SE,133,2.0,2.0,255,0.00,,,0.00,0,Wunderground v.1.15,2013-06-13 09:20:00,
2013-06-13 02:30:00,46.7,-99.9,20.00,SE,133,2.0,2.0,255,0.00,,,0.00,0,Wunderground v.1.15,2013-06-13 09:30:00,
2013-06-13 02:40:00,46.5,-99.9,20.00,SE,133,1.0,1.0,255,0.00,,,0.00,0,Wunderground v.1.15,2013-06-13 09:40:00,
2013-06-13 02:50:00,46.8,-99.9,20.00,SE,133,1.0,1.0,255,0.00,,,0.00,0,Wunderground v.1.15,2013-06-13 09:50:00,
2013-06-13 03:00:00,46.9,-99.9,20.00,SE,133,0.0,0.0,255,0.00,,,0.00,0,Wunderground v.1.15,2013-06-13 10:00:00,
2013-06-13 03:10:00,46.8,-99.9,20.00,SE,133,0.0,0.0,255,0.00,,,0.00,0,Wunderground v.1.15,2013-06-13 10:10:00,
2013-06-13 03:15:00,46.9,-99.9,20.00,SE,133,1.0,1.0,255,0.00,,,0.00,0,Wunderground v.1.15,2013-06-13 10:15:00,
2013-06-13 03:25:00,47.0,-99.9,20.00,SE,133,1.0,2.0,255,0.00,,,0.00,0,Wunderground v.1.15,2013-06-13 10:25:00,
2013-06-13 03:35:00,47.2,-99.9,20.00,SE,133,0.0,0.0,255,0.00,,,0.00,0,Wunderground v.1.15,2013-06-13 10:35:00,
2013-06-13 03:40:00,47.2,-99.9,20.00,SE,134,0.0,0.0,255,0.00,,,0.00,0,Wunderground v.1.15,2013-06-13 10:40:00,
2013-06-13 03:50:00,47.3,-99.9,20.00,SW,217,2.0,2.0,255,0.00,,,0.00,0,Wunderground v.1.15,2013-06-13 10:50:00,
2013-06-13 04:00:00,47.4,-99.9,20.00,SW,220,1.0,1.0,255,0.00,,,0.00,0,Wunderground v.1.15,2013-06-13 11:00:00,
2013-06-13 04:10:00,47.3,-99.9,20.00,SW,220,2.0,2.0,255,0.00,,,0.00,0,Wunderground v.1.15,2013-06-13 11:10:00,
2013-06-13 04:15:00,47.3,-99.9,20.00,SW,220,2.0,2.0,255,0.00,,,0.00,0,Wunderground v.1.15,2013-06-13 11:15:00,
2013-06-13 04:25:00,47.3,-99.9,20.00,SW,219,0.0,3.0,255,0.00,,,0.00,0,Wunderground v.1.15,2013-06-13 11:25:00,
2013-06-13 04:35:00,47.3,-99.9,20.00,SW,219,3.0,4.0,255,0.00,,,0.00,0,Wunderground v.1.15,2013-06-13 11:35:00,
2013-06-13 04:40:00,47.3,-99.9,20.00,SW,219,3.0,3.0,255,0.00,,,0.00,0,Wunderground v.1.15,2013-06-13 11:40:00,
2013-06-13 04:50:00,47.2,-99.9,20.00,SW,214,1.0,3.0,255,0.00,,,0.00,0,Wunderground v.1.15,2013-06-13 11:50:00,
2013-06-13 05:00:00,47.1,-99.9,20.00,SSW,199,0.0,0.0,255,0.00,,,0.00,0,Wunderground v.1.15,2013-06-13 12:00:00,
2013-06-13 05:10:00,46.9,-99.9,20.00,SSW,199,3.0,3.0,255,0.00,,,0.00,0,Wunderground v.1.15,2013-06-13 12:10:00,
2013-06-13 05:20:00,47.2,-99.9,20.00,SSW,199,3.0,3.0,255,0.00,,,0.00,0,Wunderground v.1.15,2013-06-13 12:20:00,
2013-06-13 05:30:00,47.4,-99.9,20.00,SSW,199,0.0,0.0,255,0.00,,,0.00,0,Wunderground v.1.15,2013-06-13 12:30:00,
2013-06-13 05:40:00,47.2,-99.9,20.00,SSW,199,0.0,0.0,255,0.00,,,0.00,0,Wunderground v.1.15,2013-06-13 12:40:00,
2013-06-13 05:50:00,47.3,-99.9,20.00,SSW,199,0.0,0.0,255,0.00,,,0.00,0,Wunderground v.1.15,2013-06-13 12:50:00,
2013-06-13 06:00:00,47.3,-99.9,20.00,SSW,199,0.0,0.0,255,0.00,,,0.00,0,Wunderground v.1.15,2013-06-13 13:00:00,
2013-06-13 06:10:00,47.2,-99.9,20.00,SSW,199,0.0,0.0,255,0.00,,,0.00,0,Wunderground v.1.15,2013-06-13 13:10:00,
2013-06-13 06:20:00,47.1,-99.9,20.00,SSW,199,1.0,1.0,255,0.00,,,0.00,0,Wunderground v.1.15,2013-06-13 13:20:00,
2013-06-13 06:30:00,47.2,-99.9,20.00,SSW,199,0.0,0.0,255,0.00,,,0.00,0,Wunderground v.1.15,2013-06-13 13:30:00,
2013-06-13 06:40:00,47.2,-99.9,20.00,SSW,199,0.0,0.0,255,0.00,,,0.00,0,Wunderground v.1.15,2013-06-13 13:40:00,
2013-06-13 06:50:00,47.8,-99.9,20.00,SSW,199,0.0,0.0,255,0.00,,,0.00,0,Wunderground v.1.15,2013-06-13 13:50:00,
2013-06-13 06:55:00,48.2,-99.9,20.00,SSW,199,0.0,0.0,255,0.00,,,0.00,0,Wunderground v.1.15,2013-06-13 13:55:00,
2013-06-13 07:00:00,48.3,-99.9,20.00,SSW,199,0.0,0.0,255,0.00,,,0.00,0,Wunderground v.1.15,2013-06-13 14:00:00,
2013-06-13 07:10:00,48.6,-99.9,20.00,SSW,199,0.0,0.0,255,0.00,,,0.00,0,Wunderground v.1.15,2013-06-13 14:10:00,
2013-06-13 07:20:00,48.7,-99.9,20.00,SSW,199,0.0,0.0,255,0.00,,,0.00,0,Wunderground v.1.15,2013-06-13 14:20:00,
2013-06-13 07:25:00,48.8,-99.9,20.00,SSW,199,2.0,2.0,255,0.00,,,0.00,0,Wunderground v.1.15,2013-06-13 14:25:00,
2013-06-13 07:35:00,49.3,-99.9,20.00,SSW,201,3.0,3.0,255,0.00,,,0.00,0,Wunderground v.1.15,2013-06-13 14:35:00,
2013-06-13 07:45:00,49.7,-99.9,20.00,SSW,202,2.0,3.0,255,0.00,,,0.00,0,Wunderground v.1.15,2013-06-13 14:45:00,
2013-06-13 07:55:00,49.6,-99.9,20.00,SSW,202,2.0,2.0,255,0.00,,,0.00,0,Wunderground v.1.15,2013-06-13 14:55:00,
2013-06-13 08:00:00,50.2,-99.9,20.00,SSW,202,0.0,0.0,255,0.00,,,0.00,0,Wunderground v.1.15,2013-06-13 15:00:00,
2013-06-13 08:10:00,50.5,-99.9,20.00,SSW,206,2.0,2.0,255,0.00,,,0.00,0,Wunderground v.1.15,2013-06-13 15:10:00,
2013-06-13 08:20:00,51.6,-99.9,20.00,SW,227,1.0,1.0,255,0.00,,,0.00,0,Wunderground v.1.15,2013-06-13 15:20:00,
2013-06-13 08:30:00,51.8,-99.9,20.00,WSW,243,1.0,1.0,255,0.00,,,0.00,0,Wunderground v.1.15,2013-06-13 15:30:00,
2013-06-13 08:40:00,52.2,-99.9,20.00,WSW,253,5.0,5.0,255,0.00,,,0.00,0,Wunderground v.1.15,2013-06-13 15:40:00,
2013-06-13 08:50:00,52.3,-99.9,20.00,WSW,245,4.0,4.0,255,0.00,,,0.00,0,Wunderground v.1.15,2013-06-13 15:50:00,
2013-06-13 08:55:00,51.6,-99.9,20.00,West,259,6.0,6.0,255,0.00,,,0.00,0,Wunderground v.1.15,2013-06-13 15:55:00,
2013-06-13 09:00:00,52.5,-99.9,20.00,WSW,245,7.0,7.0,255,0.00,,,0.00,0,Wunderground v.1.15,2013-06-13 16:00:00,
2013-06-13 09:10:00,51.3,-99.9,20.00,WSW,238,5.0,5.0,255,0.00,,,0.00,0,Wunderground v.1.15,2013-06-13 16:10:00,
2013-06-13 09:20:00,53.3,-99.9,20.00,WSW,250,6.0,6.0,255,0.00,,,0.00,0,Wunderground v.1.15,2013-06-13 16:20:00,
2013-06-13 09:30:00,54.0,-99.9,20.00,SW,236,4.0,4.0,255,0.00,,,0.00,0,Wunderground v.1.15,2013-06-13 16:30:00,
2013-06-13 09:40:00,64.5,-99.9,20.00,West,266,4.0,4.0,255,0.00,,,0.00,0,Wunderground v.1.15,2013-06-13 16:40:00,
2013-06-13 09:50:00,67.2,-99.9,20.00,WSW,249,7.0,7.0,255,0.00,,,0.00,0,Wunderground v.1.15,2013-06-13 16:50:00,
2013-06-13 10:00:00,67.0,-99.9,20.00,WSW,248,6.0,6.0,255,0.00,,,0.00,0,Wunderground v.1.15,2013-06-13 17:00:00,
2013-06-13 10:10:00,67.8,-99.9,20.00,SW,234,7.0,7.0,255,0.00,,,0.00,0,Wunderground v.1.15,2013-06-13 17:10:00,
2013-06-13 10:15:00,70.1,-99.9,20.00,WSW,254,6.0,7.0,255,0.00,,,0.00,0,Wunderground v.1.15,2013-06-13 17:15:00,
2013-06-13 10:25:00,70.4,-99.9,20.00,WSW,243,5.0,5.0,255,0.00,,,0.00,0,Wunderground v.1.15,2013-06-13 17:25:00,
2013-06-13 10:35:00,69.5,-99.9,20.00,WSW,253,8.0,8.0,255,0.00,,,0.00,0,Wunderground v.1.15,2013-06-13 17:35:00,
2013-06-13 10:45:00,65.6,-99.9,20.00,SW,222,3.0,5.0,255,0.00,,,0.00,0,Wunderground v.1.15,2013-06-13 17:45:00,
2013-06-13 10:55:00,67.6,-99.9,20.00,WSW,255,6.0,8.0,255,0.00,,,0.00,0,Wunderground v.1.15,2013-06-13 17:55:00,
2013-06-13 11:00:00,68.3,-99.9,20.00,WSW,248,7.0,7.0,255,0.00,,,0.00,0,Wunderground v.1.15,2013-06-13 18:00:00,
2013-06-13 11:10:00,62.0,-99.9,20.00,WSW,254,5.0,5.0,255,0.00,,,0.00,0,Wunderground v.1.15,2013-06-13 18:10:00,
2013-06-13 11:20:00,67.0,-99.9,20.00,West,272,5.0,5.0,255,0.00,,,0.00,0,Wunderground v.1.15,2013-06-13 18:20:00,
2013-06-13 11:25:00,68.0,-99.9,20.00,West,276,5.0,5.0,255,0.00,,,0.00,0,Wunderground v.1.15,2013-06-13 18:25:00,
2013-06-13 11:35:00,64.4,-99.9,20.00,WNW,285,5.0,5.0,255,0.00,,,0.00,0,Wunderground v.1.15,2013-06-13 18:35:00,
2013-06-13 11:45:00,66.6,-99.9,20.00,West,260,6.0,6.0,255,0.00,,,0.00,0,Wunderground v.1.15,2013-06-13 18:45:00,
2013-06-13 11:55:00,65.4,-99.9,20.00,West,272,7.0,7.0,255,0.00,,,0.00,0,Wunderground v.1.15,2013-06-13 18:55:00,
2013-06-13 12:00:00,68.3,-99.9,20.00,WSW,252,1.0,1.0,255,0.00,,,0.00,0,Wunderground v.1.15,2013-06-13 19:00:00,
2013-06-13 12:10:00,68.7,-99.9,20.00,WSW,251,6.0,6.0,255,0.00,,,0.00,0,Wunderground v.1.15,2013-06-13 19:10:00,
2013-06-13 12:20:00,72.5,-99.9,20.00,WNW,286,3.0,3.0,255,0.00,,,0.00,0,Wunderground v.1.15,2013-06-13 19:20:00,
2013-06-13 12:30:00,69.6,-99.9,20.00,WSW,250,6.0,6.0,255,0.00,,,0.00,0,Wunderground v.1.15,2013-06-13 19:30:00,
2013-06-13 12:35:00,74.1,-99.9,20.00,West,268,6.0,6.0,255,0.00,,,0.00,0,Wunderground v.1.15,2013-06-13 19:35:00,
2013-06-13 12:45:00,70.4,-99.9,20.00,West,281,6.0,6.0,255,0.00,,,0.00,0,Wunderground v.1.15,2013-06-13 19:45:00,
2013-06-13 12:55:00,67.3,-99.9,20.00,WSW,244,4.0,4.0,255,0.00,,,0.00,0,Wunderground v.1.15,2013-06-13 19:55:00,
2013-06-13 13:00:00,65.3,-99.9,20.00,WSW,251,5.0,5.0,255,0.00,,,0.00,0,Wunderground v.1.15,2013-06-13 20:00:00,
2013-06-13 13:10:00,66.1,-99.9,20.00,WSW,256,6.0,6.0,255,0.00,,,0.00,0,Wunderground v.1.15,2013-06-13 20:10:00,
2013-06-13 13:15:00,67.1,-99.9,20.00,WSW,246,7.0,7.0,255,0.00,,,0.00,0,Wunderground v.1.15,2013-06-13 20:15:00,
2013-06-13 13:25:00,66.6,-99.9,20.00,WSW,248,8.0,8.0,255,0.00,,,0.00,0,Wunderground v.1.15,2013-06-13 20:25:00,
2013-06-13 13:35:00,70.7,-99.9,20.00,West,259,7.0,8.0,255,0.00,,,0.00,0,Wunderground v.1.15,2013-06-13 20:35:00,
2013-06-13 13:40:00,68.0,-99.9,20.00,West,262,3.0,3.0,255,0.00,,,0.00,0,Wunderground v.1.15,2013-06-13 20:40:00,
2013-06-13 13:50:00,68.4,-99.9,20.00,WSW,240,5.0,5.0,255,0.00,,,0.00,0,Wunderground v.1.15,2013-06-13 20:50:00,
2013-06-13 14:00:00,66.7,-99.9,20.00,WSW,253,11.0,11.0,255,0.00,,,0.00,0,Wunderground v.1.15,2013-06-13 21:00:00,
2013-06-13 14:10:00,65.6,-99.9,20.00,WSW,251,9.0,9.0,255,0.00,,,0.00,0,Wunderground v.1.15,2013-06-13 21:10:00,
2013-06-13 14:15:00,65.6,-99.9,20.00,WSW,240,8.0,9.0,255,0.00,,,0.00,0,Wunderground v.1.15,2013-06-13 21:15:00,
2013-06-13 14:25:00,66.3,-99.9,20.00,WSW,239,7.0,11.0,255,0.00,,,0.00,0,Wunderground v.1.15,2013-06-13 21:25:00,
2013-06-13 14:35:00,66.1,-99.9,20.00,WSW,250,6.0,7.0,255,0.00,,,0.00,0,Wunderground v.1.15,2013-06-13 21:35:00,
2013-06-13 14:45:00,65.8,-99.9,20.00,WSW,244,8.0,9.0,255,0.00,,,0.00,0,Wunderground v.1.15,2013-06-13 21:45:00,
2013-06-13 14:55:00,66.1,-99.9,20.00,SW,217,2.0,3.0,255,0.00,,,0.00,0,Wunderground v.1.15,2013-06-13 21:55:00,
2013-06-13 15:00:00,66.6,-99.9,20.00,WSW,251,3.0,3.0,255,0.00,,,0.00,0,Wunderground v.1.15,2013-06-13 22:00:00,
2013-06-13 15:10:00,67.3,-99.9,20.00,SSW,213,7.0,7.0,255,0.00,,,0.00,0,Wunderground v.1.15,2013-06-13 22:10:00,
2013-06-13 15:20:00,67.1,-99.9,20.00,WSW,253,7.0,7.0,255,0.00,,,0.00,0,Wunderground v.1.15,2013-06-13 22:20:00,
2013-06-13 15:30:00,66.6,-99.9,20.00,SW,229,9.0,9.0,255,0.00,,,0.00,0,Wunderground v.1.15,2013-06-13 22:30:00,
2013-06-13 15:40:00,67.3,-99.9,20.00,WSW,237,8.0,8.0,255,0.00,,,0.00,0,Wunderground v.1.15,2013-06-13 22:40:00,
2013-06-13 15:50:00,67.3,-99.9,20.00,WSW,238,8.0,8.0,255,0.00,,,0.00,0,Wunderground v.1.15,2013-06-13 22:50:00,
2013-06-13 16:00:00,65.8,-99.9,20.00,WSW,242,6.0,6.0,255,0.00,,,0.00,0,Wunderground v.1.15,2013-06-13 23:00:00,
2013-06-13 16:10:00,67.6,-99.9,20.00,WSW,241,8.0,8.0,255,0.00,,,0.00,0,Wunderground v.1.15,2013-06-13 23:10:00,
2013-06-13 16:15:00,65.6,-99.9,20.00,WSW,243,7.0,8.0,255,0.00,,,0.00,0,Wunderground v.1.15,2013-06-13 23:15:00,
2013-06-13 16:25:00,65.7,-99.9,20.00,WSW,243,5.0,6.0,255,0.00,,,0.00,0,Wunderground v.1.15,2013-06-13 23:25:00,
2013-06-13 16:35:00,65.2,-99.9,20.00,SW,225,7.0,8.0,255,0.00,,,0.00,0,Wunderground v.1.15,2013-06-13 23:35:00,
2013-06-13 16:45:00,65.0,-99.9,20.00,WSW,238,11.0,11.0,255,0.00,,,0.00,0,Wunderground v.1.15,2013-06-13 23:45:00,
2013-06-13 16:55:00,65.2,-99.9,20.00,SW,235,7.0,10.0,255,0.00,,,0.00,0,Wunderground v.1.15,2013-06-13 23:55:00,
2013-06-13 17:00:00,64.6,-99.9,20.00,SW,228,14.0,14.0,255,0.00,,,0.00,0,Wunderground v.1.15,2013-06-14 00:00:00,
2013-06-13 17:10:00,64.5,-99.9,20.00,SW,233,8.0,8.0,255,0.00,,,0.00,0,Wunderground v.1.15,2013-06-14 00:10:00,
2013-06-13 17:15:00,64.5,-99.9,20.00,WSW,247,11.0,11.0,255,0.00,,,0.00,0,Wunderground v.1.15,2013-06-14 00:15:00,
2013-06-13 17:25:00,62.7,-99.9,20.00,WSW,248,11.0,11.0,255,0.00,,,0.00,0,Wunderground v.1.15,2013-06-14 00:25:00,
2013-06-13 17:35:00,65.2,-99.9,20.00,WSW,252,13.0,14.0,255,0.00,,,0.00,0,Wunderground v.1.15,2013-06-14 00:35:00,
2013-06-13 17:45:00,62.8,-99.9,20.00,WSW,251,10.0,12.0,255,0.00,,,0.00,0,Wunderground v.1.15,2013-06-14 00:45:00,
2013-06-13 17:50:00,63.5,-99.9,20.00,West,271,14.0,14.0,255,0.00,,,0.00,0,Wunderground v.1.15,2013-06-14 00:50:00,
2013-06-13 17:55:00,63.2,-99.9,20.00,WSW,256,14.0,14.0,255,0.00,,,0.00,0,Wunderground v.1.15,2013-06-14 00:55:00,
2013-06-13 18:00:00,63.2,-99.9,20.00,West,264,11.0,11.0,255,0.00,,,0.00,0,Wunderground v.1.15,2013-06-14 01:00:00,
2013-06-13 18:10:00,61.8,-99.9,20.00,West,260,11.0,11.0,255,0.00,,,0.00,0,Wunderground v.1.15,2013-06-14 01:10:00,
2013-06-13 18:20:00,60.4,-99.9,20.00,WSW,256,14.0,14.0,255,0.00,,,0.00,0,Wunderground v.1.15,2013-06-14 01:20:00,
2013-06-13 18:30:00,61.1,-99.9,20.00,West,261,15.0,15.0,255,0.00,,,0.00,0,Wunderground v.1.15,2013-06-14 01:30:00,
2013-06-13 18:40:00,60.5,-99.9,20.00,West,260,13.0,13.0,255,0.00,,,0.00,0,Wunderground v.1.15,2013-06-14 01:40:00,
2013-06-13 18:50:00,59.4,-99.9,20.00,West,261,10.0,10.0,255,0.00,,,0.00,0,Wunderground v.1.15,2013-06-14 01:50:00,
2013-06-13 18:55:00,59.0,-99.9,20.00,WSW,249,9.0,10.0,255,0.00,,,0.00,0,Wunderground v.1.15,2013-06-14 01:55:00,
2013-06-13 19:00:00,58.7,-99.9,20.00,West,259,8.0,8.0,255,0.00,,,0.00,0,Wunderground v.1.15,2013-06-14 02:00:00,
2013-06-13 19:10:00,58.7,-99.9,20.00,West,260,9.0,9.0,255,0.00,,,0.00,0,Wunderground v.1.15,2013-06-14 02:10:00,
2013-06-13 19:20:00,59.4,-99.9,20.00,WNW,283,14.0,14.0,255,0.00,,,0.00,0,Wunderground v.1.15,2013-06-14 02:20:00,
2013-06-13 19:25:00,59.2,-99.9,20.00,WNW,293,14.0,14.0,255,0.00,,,0.00,0,Wunderground v.1.15,2013-06-14 02:25:00,
2013-06-13 19:35:00,58.2,-99.9,20.00,West,264,5.0,13.0,255,0.00,,,0.00,0,Wunderground v.1.15,2013-06-14 02:35:00,
2013-06-13 19:45:00,57.3,-99.9,20.00,WNW,299,4.0,7.0,255,0.00,,,0.00,0,Wunderground v.1.15,2013-06-14 02:45:00,
2013-06-13 19:50:00,56.0,-99.9,20.00,NW,319,5.0,5.0,255,0.00,,,0.00,0,Wunderground v.1.15,2013-06-14 02:50:00,
2013-06-13 20:00:00,53.7,-99.9,20.00,North,355,0.0,0.0,255,0.00,,,0.00,0,Wunderground v.1.15,2013-06-14 03:00:00,
2013-06-13 20:10:00,54.8,-99.9,20.00,NNW,336,4.0,4.0,255,0.00,,,0.00,0,Wunderground v.1.15,2013-06-14 03:10:00,
2013-06-13 20:20:00,54.4,-99.9,20.00,West,262,0.0,0.0,255,0.00,,,0.00,0,Wunderground v.1.15,2013-06-14 03:20:00,
2013-06-13 20:25:00,53.9,-99.9,20.00,NW,318,2.0,2.0,255,0.00,,,0.00,0,Wunderground v.1.15,2013-06-14 03:25:00,
2013-06-13 20:35:00,52.8,-99.9,20.00,NW,313,0.0,3.0,255,0.00,,,0.00,0,Wunderground v.1.15,2013-06-14 03:35:00,
2013-06-13 20:45:00,53.4,-99.9,20.00,NW,313,2.0,2.0,255,0.00,,,0.00,0,Wunderground v.1.15,2013-06-14 03:45:00,
2013-06-13 20:55:00,52.3,-99.9,20.00,NW,313,1.0,1.0,255,0.00,,,0.00,0,Wunderground v.1.15,2013-06-14 03:55:00,
2013-06-13 21:00:00,53.2,-99.9,20.00,NW,313,4.0,4.0,255,0.00,,,0.00,0,Wunderground v.1.15,2013-06-14 04:00:00,
2013-06-13 21:05:00,53.2,-99.9,20.00,NW,313,2.0,4.0,255,0.00,,,0.00,0,Wunderground v.1.15,2013-06-14 04:05:00,
2013-06-13 21:10:00,52.9,-99.9,20.00,NW,313,4.0,4.0,255,0.00,,,0.00,0,Wunderground v.1.15,2013-06-14 04:10:00,
2013-06-13 21:15:00,53.0,-99.9,20.00,NW,305,6.0,6.0,255,0.00,,,0.00,0,Wunderground v.1.15,2013-06-14 04:15:00,
2013-06-13 21:20:00,52.9,-99.9,19.99,WNW,301,6.0,6.0,255,0.00,,,0.00,0,Wunderground v.1.15,2013-06-14 04:20:00,
2013-06-13 21:30:00,52.2,-99.9,20.00,WSW,254,4.0,4.0,255,0.00,,,0.00,0,Wunderground v.1.15,2013-06-14 04:30:00,
2013-06-13 21:35:00,52.3,-99.9,20.00,WSW,258,5.0,5.0,255,0.00,,,0.00,0,Wunderground v.1.15,2013-06-14 04:35:00,
2013-06-13 21:40:00,51.6,-99.9,20.00,WSW,250,5.0,5.0,255,0.00,,,0.00,0,Wunderground v.1.15,2013-06-14 04:40:00,
2013-06-13 21:50:00,51.9,-99.9,20.00,WNW,291,5.0,5.0,255,0.00,,,0.00,0,Wunderground v.1.15,2013-06-14 04:50:00,
2013-06-13 22:00:00,52.0,-99.9,20.00,WNW,290,2.0,2.0,255,0.00,,,0.00,0,Wunderground v.1.15,2013-06-14 05:00:00,
2013-06-13 22:10:00,51.8,-99.9,20.00,WNW,290,2.0,2.0,255,0.00,,,0.00,0,Wunderground v.1.15,2013-06-14 05:10:00,
2013-06-13 22:15:00,51.6,-99.9,19.99,WNW,290,4.0,4.0,255,0.00,,,0.00,0,Wunderground v.1.15,2013-06-14 05:15:00,
2013-06-13 22:25:00,51.5,-99.9,20.00,WNW,290,4.0,4.0,255,0.00,,,0.00,0,Wunderground v.1.15,2013-06-14 05:25:00,
2013-06-13 22:35:00,51.5,-99.9,20.00,WNW,291,6.0,6.0,255,0.00,,,0.00,0,Wunderground v.1.15,2013-06-14 05:35:00,
2013-06-13 22:40:00,51.3,-99.9,20.00,WNW,293,6.0,6.0,255,0.00,,,0.00,0,Wunderground v.1.15,2013-06-14 05:40:00,
2013-06-13 22:50:00,51.1,-99.9,20.00,WNW,294,4.0,4.0,255,0.00,,,0.00,0,Wunderground v.1.15,2013-06-14 05:50:00,
2013-06-13 23:00:00,50.9,-99.9,20.00,WNW,294,5.0,5.0,255,0.00,,,0.00,0,Wunderground v.1.15,2013-06-14 06:00:00,
2013-06-13 23:10:00,50.5,-99.9,20.00,NW,309,5.0,5.0,255,0.00,,,0.00,0,Wunderground v.1.15,2013-06-14 06:10:00,
2013-06-13 23:15:00,50.2,-99.9,20.00,NW,318,6.0,6.0,255,0.00,,,0.00,0,Wunderground v.1.15,2013-06-14 06:15:00,
2013-06-13 23:25:00,50.0,-99.9,20.00,WNW,301,5.0,7.0,255,0.00,,,0.00,0,Wunderground v.1.15,2013-06-14 06:25:00,
2013-06-13 23:35:00,49.7,-99.9,20.00,NW,309,3.0,7.0,255,0.00,,,0.00,0,Wunderground v.1.15,2013-06-14 06:35:00,
2013-06-13 23:45:00,49.5,-99.9,20.00,West,275,3.0,3.0,255,0.00,,,0.00,0,Wunderground v.1.15,2013-06-14 06:45:00,
2013-06-13 23:55:00,49.3,-99.9,20.00,West,279,4.0,5.0,255,0.00,,,0.00,0,Wunderground v.1.15,2013-06-14 06:55:00,